Time;durP1;ratioP1;P1;durP2;ratioP2;P2;SDS_P1;SDS_P2;PMS_P1;PMS_P2;Temp;Humidity;BMP_temperature;BMP_pressure;BME280_temperature;BME280_humidity;BME280_pressure;Samples;Min_cycle;Max_cycle;Signal;HPM_P1;HPM_P2
2022/11/11 00:00:19;;;;;;;;;8.25;8.25;;;;;9.03;81.80;101993.56;6202587;22;45176;-93
2022/11/11 00:02:48;;;;;;;;;7.75;6.00;;;;;10.11;82.04;102168.66;6202536;22;44830;-94
2022/11/11 00:05:16;;;;;;;;;5.25;5.00;;;;;10.13;81.81;102181.88;6198525;22;46864;-92
2022/11/11 00:07:44;;;;;;;;;11.25;11.00;;;;;9.93;81.67;102139.47;6181392;22;45164;-95
2022/11/11 00:10:15;;;;;;;;;6.50;6.50;;;;;8.64;82.03;101907.06;6235880;22;44587;-93
2022/11/11 00:12:47;;;;;;;;;7.25;7.25;;;;;9.41;82.31;102051.06;6223840;22;44923;-93
2022/11/11 00:15:14;;;;;;;;;7.50;6.75;;;;;8.41;82.19;101877.81;6210220;22;46000;-93
2022/11/11 00:26:28;;;;;;;;;11.50;9.50;;;;;9.00;82.07;102000.53;6152256;23;45406;-91
2022/11/11 00:28:57;;;;;;;;;8.50;8.50;;;;;9.64;82.43;102100.50;6137346;23;45147;-94
2022/11/11 00:31:30;;;;;;;;;7.25;7.25;;;;;9.21;82.54;102018.31;6159987;23;45334;-94
2022/11/11 00:34:04;;;;;;;;;7.75;7.75;;;;;8.89;82.34;101968.81;6138868;23;45141;-91
2022/11/11 00:36:30;;;;;;;;;7.75;7.50;;;;;10.01;82.57;102166.81;6166571;23;45187;-94
2022/11/11 00:38:57;;;;;;;;;9.50;9.25;;;;;8.96;82.58;101986.47;6116438;23;44576;-94
2022/11/11 00:41:26;;;;;;;;;11.00;8.75;;;;;9.95;82.96;102156.19;6141498;23;44750;-93
2022/11/11 00:43:54;;;;;;;;;9.50;9.50;;;;;8.66;82.56;101950.16;6159516;23;45222;-94
2022/11/11 00:51:52;;;;;;;;;9.00;7.25;;;;;8.87;83.18;102028.56;6168369;23;45276;-92
2022/11/11 00:54:17;;;;;;;;;5.50;5.25;;;;;8.76;83.53;102043.38;6165779;22;44935;-94
2022/11/11 00:56:43;;;;;;;;;9.75;9.75;;;;;8.64;83.40;102012.47;6196756;22;46806;-93
2022/11/11 00:59:10;;;;;;;;;1.50;1.00;;;;;8.38;83.53;101951.56;6226310;22;45250;-94
2022/11/11 01:01:39;;;;;;;;;7.50;7.50;;;;;9.73;83.70;102215.84;6233903;22;45244;-93
2022/11/11 01:04:05;;;;;;;;;8.00;7.00;;;;;8.95;83.27;102050.63;6229193;22;45143;-93
2022/11/11 01:06:31;;;;;;;;;9.50;6.75;;;;;8.15;83.09;101910.03;6201399;22;46102;-94
2022/11/11 01:09:05;;;;;;;;;8.50;8.50;;;;;8.14;83.12;101897.75;6226128;22;45279;-93
2022/11/11 01:11:32;;;;;;;;;10.50;9.25;;;;;7.99;83.18;101888.81;6233529;22;45254;-94
2022/11/11 01:14:01;;;;;;;;;9.00;8.00;;;;;9.77;83.22;102173.63;6257438;22;45290;-94
2022/11/11 01:16:30;;;;;;;;;12.75;10.50;;;;;8.77;83.26;102016.16;6256415;22;45669;-93
2022/11/11 01:19:07;;;;;;;;;6.75;6.75;;;;;9.60;83.03;102164.69;6224915;22;45186;-93
2022/11/11 01:21:32;;;;;;;;;6.00;6.00;;;;;9.01;83.00;102065.63;6202875;22;45282;-94
2022/11/11 01:23:58;;;;;;;;;7.50;7.50;;;;;8.98;83.33;102045.38;6232465;22;45478;-94
2022/11/11 01:26:31;;;;;;;;;10.50;8.50;;;;;9.14;82.96;102070.16;6261049;22;46668;-94
2022/11/11 01:29:21;;;;;;;;;5.25;5.25;;;;;9.37;83.03;102104.66;6232949;22;45239;-95
2022/11/11 01:31:50;;;;;;;;;8.00;8.00;;;;;8.91;82.64;102040.88;6202192;22;45223;-94
2022/11/11 01:34:26;;;;;;;;;;;;;;;;;;;;;
2022/11/11 01:37:10;;;;;;;;;8.00;6.75;;;;;9.67;83.15;102153.34;6255011;22;75233;-94
2022/11/11 01:39:35;;;;;;;;;6.75;6.50;;;;;9.60;83.05;102141.81;6240346;22;45178;-94
2022/11/11 01:42:05;;;;;;;;;11.00;7.75;;;;;8.45;82.49;101938.50;6258150;22;45167;-93
2022/11/11 01:44:46;;;;;;;;;8.25;8.25;;;;;9.25;82.84;102084.31;6230353;22;45600;-93
2022/11/11 01:47:20;;;;;;;;;8.50;8.50;;;;;8.03;82.45;101863.38;6229370;22;46981;-94
2022/11/11 01:49:55;;;;;;;;;9.25;8.75;;;;;8.70;82.66;102000.28;6228624;22;45209;-95
2022/11/11 01:52:42;;;;;;;;;10.75;9.25;;;;;8.81;82.66;101995.09;6255301;22;45152;-94
2022/11/11 01:55:19;;;;;;;;;7.75;7.00;;;;;8.34;82.50;101925.19;6255690;22;45352;-93
2022/11/11 01:57:51;;;;;;;;;8.00;8.00;;;;;9.85;82.57;102191.31;6226286;22;47148;-93
2022/11/11 02:00:21;;;;;;;;;13.75;10.75;;;;;8.25;82.56;101930.34;6224225;22;45489;-95
2022/11/11 02:02:52;;;;;;;;;9.25;9.25;;;;;8.98;82.74;102061.19;6255556;22;45290;-93
2022/11/11 02:08:43;;;;;;;;;7.75;7.75;;;;;9.81;82.69;102197.44;6261196;22;44933;-92
2022/11/11 02:16:54;;;;;;;;;7.75;7.75;;;;;9.83;82.54;102199.22;6261060;22;44611;-93
2022/11/11 02:19:45;;;;;;;;;5.75;5.75;;;;;7.84;82.00;101849.16;6236626;22;47504;-93
2022/11/11 02:22:33;;;;;;;;;12.25;8.00;;;;;9.13;82.54;102067.50;6234676;22;45284;-94
2022/11/11 02:25:06;;;;;;;;;11.25;9.75;;;;;8.21;82.68;101898.69;6259015;22;45152;-93
2022/11/11 02:27:36;;;;;;;;;8.25;7.00;;;;;9.40;82.35;102120.53;6234028;22;45133;-94
2022/11/11 02:30:06;;;;;;;;;10.50;8.25;;;;;8.24;82.30;101928.56;6242945;22;45113;-92
2022/11/11 02:32:33;;;;;;;;;9.25;7.50;;;;;9.19;82.10;102086.03;6239176;22;44704;-93
2022/11/11 02:34:58;;;;;;;;;6.25;6.25;;;;;9.19;82.28;102093.94;6231997;22;44616;-93
2022/11/11 02:37:26;;;;;;;;;5.50;5.50;;;;;9.01;82.42;102055.94;6230750;22;45175;-94
2022/11/11 02:39:59;;;;;;;;;8.00;8.00;;;;;8.71;81.88;102012.59;6204499;22;46034;-93
2022/11/11 02:42:25;;;;;;;;;8.00;6.75;;;;;9.03;82.28;102064.78;6229784;22;45144;-93
2022/11/11 02:44:57;;;;;;;;;7.75;7.00;;;;;8.67;82.51;102045.06;6226516;22;45146;-94
2022/11/11 02:47:23;;;;;;;;;8.50;8.50;;;;;7.82;82.21;101874.59;6259872;22;44831;-93
2022/11/11 02:49:49;;;;;;;;;7.25;7.25;;;;;7.60;82.74;101832.19;6240129;22;45143;-93
2022/11/11 02:52:17;;;;;;;;;8.00;8.00;;;;;8.22;82.34;101951.41;6263352;22;45131;-94
2022/11/11 02:54:47;;;;;;;;;8.50;8.00;;;;;9.56;82.69;102176.09;6229035;22;45208;-93
2022/11/11 02:57:16;;;;;;;;;10.50;8.00;;;;;8.32;82.28;101971.72;6226640;22;45225;-94
2022/11/11 02:59:42;;;;;;;;;9.00;9.00;;;;;8.55;82.50;102002.75;6223552;22;47259;-95
2022/11/11 03:02:08;;;;;;;;;7.00;7.00;;;;;9.40;82.28;102164.53;6254291;22;45340;-94
2022/11/11 03:04:37;;;;;;;;;5.25;5.25;;;;;8.77;82.61;102059.22;6207378;22;44727;-94
2022/11/11 03:07:03;;;;;;;;;9.25;7.50;;;;;7.79;82.19;101895.59;6229555;22;45111;-93
2022/11/11 03:09:30;;;;;;;;;10.25;8.75;;;;;7.57;82.33;101847.94;6257012;22;46608;-94
2022/11/11 03:11:56;;;;;;;;;8.75;7.00;;;;;8.39;82.27;101982.31;6239511;22;45069;-94
2022/11/11 03:14:41;;;;;;;;;11.00;8.25;;;;;9.13;82.75;102107.06;6259749;22;45395;-93
2022/11/11 03:21:03;;;;;;;;;13.75;12.00;;;;;8.60;82.22;102016.84;6260321;22;44938;-93
2022/11/11 03:22:57;;;;;;;;;8.50;7.25;;;;;7.64;82.32;101854.19;6258229;22;44793;-92
2022/11/11 03:25:39;;;;;;;;;7.50;7.50;;;;;7.62;82.14;101850.63;6234166;22;45313;-93
2022/11/11 03:28:10;;;;;;;;;8.75;8.25;;;;;9.49;82.81;102167.25;6233810;22;44841;-93
2022/11/11 03:30:40;;;;;;;;;8.25;7.50;;;;;9.51;82.87;102169.91;6250513;22;47214;-93
2022/11/11 03:33:11;;;;;;;;;7.00;7.00;;;;;7.82;82.59;101885.09;6253729;22;44694;-93
2022/11/11 03:35:41;;;;;;;;;8.75;7.25;;;;;9.08;82.79;102117.56;6208953;22;45116;-93
2022/11/11 03:41:03;;;;;;;;;8.25;6.00;;;;;8.86;82.32;102071.63;6263365;22;44834;-93
2022/11/11 03:43:34;;;;;;;;;7.25;4.75;;;;;7.64;82.14;101867.34;6231845;22;45394;-93
2022/11/11 03:46:04;;;;;;;;;11.75;7.50;;;;;9.37;82.47;102178.56;6227916;22;44587;-94
2022/11/11 03:48:37;;;;;;;;;8.50;6.00;;;;;8.58;82.25;102047.59;6225737;22;45286;-94
2022/11/11 03:51:03;;;;;;;;;10.75;7.00;;;;;9.28;82.66;102191.66;6229839;22;46510;-93
2022/11/11 03:53:31;;;;;;;;;7.25;7.25;;;;;8.16;82.48;101994.34;6229937;22;45376;-93
2022/11/11 03:55:57;;;;;;;;;11.00;8.50;;;;;7.47;82.10;101880.28;6239713;22;44668;-93
2022/11/11 03:58:23;;;;;;;;;8.25;5.25;;;;;9.02;82.36;102130.69;6233805;22;45646;-92
2022/11/11 04:00:50;;;;;;;;;8.50;8.00;;;;;7.96;82.40;101972.16;6233136;22;45499;-93
2022/11/11 04:23:57;;;;;;;;;11.00;9.50;;;;;7.93;83.34;102017.75;6229330;22;44848;-92
2022/11/11 04:26:23;;;;;;;;;9.75;9.75;;;;;7.62;82.88;101951.53;6185083;22;44883;-93
2022/11/11 04:32:34;;;;;;;;;8.00;6.50;;;;;8.26;82.69;102055.03;6227495;22;45262;-92
2022/11/11 04:34:26;;;;;;;;;7.25;7.25;;;;;9.07;82.92;102195.81;6228611;22;45515;-93
2022/11/11 04:36:51;;;;;;;;;10.25;8.75;;;;;7.81;82.95;101978.09;6204088;22;45371;-94
2022/11/11 04:42:07;;;;;;;;;11.25;10.75;;;;;7.80;83.03;101965.78;6212441;22;44666;-94
2022/11/11 04:47:21;;;;;;;;;10.25;7.75;;;;;9.19;83.25;102191.56;6128082;23;45463;-93
2022/11/11 04:49:47;;;;;;;;;7.50;7.00;;;;;7.25;82.90;101871.19;6130132;23;45129;-93
2022/11/11 04:52:35;;;;;;;;;;;;;;;;;;;;;
2022/11/11 04:57:49;;;;;;;;;7.00;7.00;;;;;7.78;83.09;101936.81;6131533;23;44650;-93
2022/11/11 05:00:22;;;;;;;;;8.50;5.50;;;;;8.56;82.95;102070.38;6102658;23;45407;-93
2022/11/11 05:08:54;;;;;;;;;9.75;8.50;;;;;8.28;83.26;102011.19;6136343;23;45621;-93
2022/11/11 05:11:01;;;;;;;;;7.75;7.00;;;;;8.21;82.89;101999.66;6131611;23;45385;-92
2022/11/11 05:22:05;;;;;;;;;13.25;7.00;;;;;7.63;83.12;101895.38;6128418;23;44788;-94
2022/11/11 05:27:25;;;;;;;;;;;;;;;;;;;;;
2022/11/11 05:30:02;;;;;;;;;10.25;7.75;;;;;7.89;82.82;101926.41;6205406;22;72106;-93
2022/11/11 05:32:29;;;;;;;;;11.00;8.75;;;;;7.66;83.13;101878.75;6198121;22;45192;-94
2022/11/11 05:34:55;;;;;;;;;10.25;8.00;;;;;8.38;83.46;102022.69;6225206;22;45187;-93
2022/11/11 05:37:20;;;;;;;;;8.00;8.00;;;;;8.38;82.98;102010.44;6204224;22;47202;-92
2022/11/11 05:39:46;;;;;;;;;9.00;7.75;;;;;9.41;82.84;102190.00;6223001;22;45175;-92
2022/11/11 05:42:23;;;;;;;;;7.75;7.50;;;;;9.00;82.86;102125.41;6192627;22;45162;-94
2022/11/11 05:44:56;;;;;;;;;6.25;6.25;;;;;8.41;82.49;102028.91;6234138;22;44948;-92
2022/11/11 05:47:23;;;;;;;;;9.75;7.50;;;;;8.27;82.71;102005.00;6209734;22;45279;-90
2022/11/11 05:49:52;;;;;;;;;10.00;8.00;;;;;7.38;82.48;101838.03;6219372;22;45203;-94
2022/11/11 05:52:18;;;;;;;;;9.50;7.00;;;;;8.78;82.52;102091.75;6216505;22;45140;-93
2022/11/11 05:54:44;;;;;;;;;6.75;5.50;;;;;8.24;83.09;101993.56;6220582;22;45131;-93
2022/11/11 05:57:11;;;;;;;;;7.25;6.00;;;;;9.37;82.54;102175.03;6217007;22;47315;-93
2022/11/11 05:59:42;;;;;;;;;11.50;9.00;;;;;7.93;82.77;101949.28;6191325;22;45837;-94
2022/11/11 06:02:09;;;;;;;;;7.00;7.00;;;;;8.29;82.65;102011.19;6206019;22;44602;-93
2022/11/11 06:04:36;;;;;;;;;8.00;6.50;;;;;9.32;82.44;102196.09;6233376;22;45094;-93
2022/11/11 06:07:02;;;;;;;;;10.00;5.75;;;;;7.87;82.25;101959.75;6206287;22;47201;-93
2022/11/11 06:09:27;;;;;;;;;6.50;6.00;;;;;8.60;82.88;102066.06;6202652;22;45478;-93
2022/11/11 06:11:55;;;;;;;;;6.00;6.00;;;;;8.27;82.35;102026.09;6230541;22;45293;-94
2022/11/11 06:14:22;;;;;;;;;5.75;4.75;;;;;8.24;82.71;102030.44;6229052;22;44837;-93
2022/11/11 06:17:06;;;;;;;;;6.25;6.25;;;;;8.18;82.40;102002.25;6250564;22;45504;-93
2022/11/11 06:19:32;;;;;;;;;5.50;5.50;;;;;7.75;82.40;101941.16;6230446;22;44701;-92
2022/11/11 06:21:57;;;;;;;;;9.00;7.75;;;;;8.01;82.46;101987.13;6225368;22;45165;-95
2022/11/11 06:24:32;;;;;;;;;5.25;4.00;;;;;7.70;82.62;101934.94;6224583;22;45269;-91
2022/11/11 06:26:58;;;;;;;;;6.25;5.00;;;;;7.77;82.44;101939.41;6234262;22;47188;-90
2022/11/11 06:29:34;;;;;;;;;4.00;3.00;;;;;8.69;82.37;102106.56;6237727;22;44581;-92
2022/11/11 06:32:02;;;;;;;;;3.00;3.00;;;;;8.97;82.71;102151.72;6231755;22;45191;-92
2022/11/11 06:34:28;;;;;;;;;5.75;5.25;;;;;8.61;82.59;102089.78;6251142;22;44781;-95
2022/11/11 06:36:54;;;;;;;;;6.50;6.50;;;;;9.33;82.70;102224.25;6225840;22;45627;-92
2022/11/11 06:39:22;;;;;;;;;8.25;6.50;;;;;7.36;82.32;101880.09;6227247;22;44844;-94
2022/11/11 06:41:49;;;;;;;;;6.50;6.00;;;;;8.38;82.03;102054.31;6228882;22;45188;-92
2022/11/11 06:44:15;;;;;;;;;7.25;5.25;;;;;8.51;82.26;102087.91;6224258;22;44825;-91
2022/11/11 06:46:45;;;;;;;;;8.25;6.25;;;;;8.52;82.65;102080.03;6220348;22;47002;-93
2022/11/11 06:49:13;;;;;;;;;7.00;5.00;;;;;8.58;82.35;102104.66;6219845;22;44685;-93
2022/11/11 06:51:47;;;;;;;;;6.00;5.00;;;;;8.92;82.30;102169.25;6229384;22;45267;-93
2022/11/11 06:54:15;;;;;;;;;5.00;4.50;;;;;8.32;82.65;102065.66;6227006;22;45108;-93
2022/11/11 06:56:47;;;;;;;;;5.75;5.25;;;;;8.22;82.86;102040.09;6226161;22;45107;-95
2022/11/11 06:59:12;;;;;;;;;6.00;6.00;;;;;9.33;82.85;102232.16;6201957;22;45541;-91
2022/11/11 07:01:38;;;;;;;;;6.00;5.00;;;;;8.95;83.10;102194.78;6218225;22;45200;-90
2022/11/11 07:04:03;;;;;;;;;6.25;5.50;;;;;8.97;82.54;102178.09;6217999;22;45515;-92
2022/11/11 07:06:29;;;;;;;;;4.25;4.00;;;;;8.25;82.60;102058.56;6229086;22;48135;-90
2022/11/11 07:08:56;;;;;;;;;6.00;4.75;;;;;8.67;82.89;102110.03;6219028;22;45182;-92
2022/11/11 07:11:35;;;;;;;;;6.25;4.50;;;;;9.32;82.95;102227.78;6231139;22;45298;-96
2022/11/11 07:14:05;;;;;;;;;5.50;5.50;;;;;9.41;82.47;102233.16;6258616;22;44769;-94
2022/11/11 07:16:41;;;;;;;;;10.25;6.00;;;;;8.32;82.48;102045.47;6208116;22;47033;-94
2022/11/11 07:19:11;;;;;;;;;3.25;3.25;;;;;8.41;82.64;102059.63;6206771;22;45173;-93
2022/11/11 07:21:37;;;;;;;;;5.50;4.75;;;;;8.34;82.63;102056.91;6199721;22;45374;-93
2022/11/11 07:24:09;;;;;;;;;3.75;3.75;;;;;7.83;82.52;101957.94;6252755;22;45545;-94
2022/11/11 07:26:37;;;;;;;;;6.25;6.25;;;;;8.35;82.84;102020.91;6251709;22;46803;-92
2022/11/11 07:35:44;;;;;;;;;5.50;5.50;;;;;8.75;83.35;102107.53;6135469;23;45429;-92
2022/11/11 07:44:53;;;;;;;;;5.00;5.00;;;;;9.56;82.93;102236.81;6135433;23;45296;-91
2022/11/11 07:47:19;;;;;;;;;9.25;7.25;;;;;8.33;82.81;101994.53;6134420;23;45424;-91
2022/11/11 07:49:47;;;;;;;;;7.75;6.00;;;;;8.88;82.27;102104.16;6107483;23;47269;-94
2022/11/11 07:52:13;;;;;;;;;12.25;8.00;;;;;9.21;82.70;102135.28;6128966;23;45341;-93
2022/11/11 07:54:41;;;;;;;;;7.25;6.00;;;;;9.04;82.95;102108.72;6136485;23;44634;-93
2022/11/11 07:57:11;;;;;;;;;9.25;7.50;;;;;8.91;82.35;102076.94;6132333;23;45246;-93
2022/11/11 07:59:41;;;;;;;;;9.25;7.50;;;;;7.52;82.52;101844.38;6110210;23;46928;-92
2022/11/11 08:02:13;;;;;;;;;6.75;6.00;;;;;8.61;83.00;102031.81;6170921;22;45315;-93
2022/11/11 08:04:43;;;;;;;;;10.25;6.25;;;;;8.83;82.96;102066.31;6263906;22;45130;-94
2022/11/11 08:07:09;;;;;;;;;10.00;10.00;;;;;7.98;82.70;101925.66;6229814;22;45274;-94
2022/11/11 08:09:34;;;;;;;;;9.50;7.00;;;;;9.07;82.49;102099.97;6247655;22;47835;-94
2022/11/11 08:14:47;;;;;;;;;7.25;7.25;;;;;7.94;82.76;101922.13;6256966;22;45349;-93
2022/11/11 08:17:24;;;;;;;;;8.00;6.75;;;;;9.81;82.64;102226.47;6231654;22;45187;-93
2022/11/11 08:20:13;;;;;;;;;7.50;7.50;;;;;8.72;82.85;102034.56;6237994;22;45291;-94
2022/11/11 08:22:56;;;;;;;;;7.50;6.75;;;;;9.42;82.52;102161.00;6208226;22;45807;-92
2022/11/11 08:25:35;;;;;;;;;;;;;;;;;;;;;
2022/11/11 08:28:31;;;;;;;;;5.00;5.00;;;;;9.84;82.68;102231.78;6235200;22;69951;-92
2022/11/11 08:31:13;;;;;;;;;;;;;;;;;;;;;
2022/11/11 08:43:43;;;;;;;;;4.75;4.75;;;;;9.85;82.43;102246.78;5993697;23;44919;-92
2022/11/11 08:46:17;;;;;;;;;8.75;8.00;;;;;7.99;82.49;101914.25;5995881;23;45380;-92
2022/11/11 08:49:10;;;;;;;;;9.00;7.00;;;;;7.67;82.26;101877.00;5990234;23;45509;-93
2022/11/11 08:59:10;;;;;;;;;11.50;9.00;;;;;8.16;82.20;101980.31;5930143;23;45252;-92
2022/11/11 09:05:34;;;;;;;;;7.00;6.00;;;;;9.82;82.61;102271.38;5835264;24;45554;-93
2022/11/11 09:23:06;;;;;;;;;5.50;5.50;;;;;7.70;82.16;101877.03;5804355;24;45207;-93
2022/11/11 10:30:26;;;;;;;;;8.00;7.50;;;;;10.10;82.04;102227.63;6084577;23;45184;-91
2022/11/11 10:33:17;;;;;;;;;11.75;5.00;;;;;10.43;82.04;102307.19;6076161;23;45399;-94
2022/11/11 10:35:46;;;;;;;;;8.00;7.50;;;;;10.38;81.80;102272.81;6069306;23;47203;-90
2022/11/11 10:38:43;;;;;;;;;12.50;9.50;;;;;10.46;82.01;102270.22;6088746;23;44782;-92
2022/11/11 10:41:18;;;;;;;;;7.00;7.00;;;;;10.35;82.16;102246.34;6035211;23;45206;-93
2022/11/11 10:44:29;;;;;;;;;8.75;8.00;;;;;8.99;81.93;101997.03;6026921;23;45225;-94
2022/11/11 10:47:08;;;;;;;;;10.00;7.75;;;;;10.63;81.57;102278.28;5935460;23;46706;-91
2022/11/11 10:49:58;;;;;;;;;9.00;8.50;;;;;10.23;81.96;102209.22;5950195;23;45340;-94
2022/11/11 10:52:49;;;;;;;;;12.00;11.00;;;;;10.18;82.03;102168.69;5934752;24;45345;-92
2022/11/11 10:55:25;;;;;;;;;13.25;10.50;;;;;10.40;81.75;102220.84;5963283;23;45134;-94
2022/11/11 10:58:31;;;;;;;;;8.00;8.00;;;;;10.88;81.62;102267.84;5935788;24;46445;-95
2022/11/11 11:04:40;;;;;;;;;9.25;9.00;;;;;9.91;81.07;102091.00;6041207;23;45274;-91
2022/11/11 11:27:45;;;;;;;;;12.75;11.25;;;;;10.48;79.46;101967.13;6080493;23;45170;-91
2022/11/11 11:30:49;;;;;;;;;;;;;;;;;;;;;
2022/11/11 11:37:28;;;;;;;;;9.00;9.00;;;;;12.24;79.68;102270.03;6042449;23;45472;-90
2022/11/11 11:40:19;;;;;;;;;14.25;12.25;;;;;12.23;79.56;102249.69;6015058;23;45267;-93
2022/11/11 11:42:47;;;;;;;;;9.50;7.75;;;;;11.88;79.36;102167.53;6011154;23;45327;-92
2022/11/11 11:45:59;;;;;;;;;11.00;11.00;;;;;11.28;79.18;102072.16;6015624;23;45371;-96
2022/11/11 11:49:04;;;;;;;;;11.00;11.00;;;;;12.32;79.30;102234.69;5988052;23;46569;-93
2022/11/11 11:52:09;;;;;;;;;13.00;13.00;;;;;12.39;79.10;102231.13;6014149;23;45459;-91
2022/11/11 11:55:07;;;;;;;;;12.50;12.00;;;;;12.07;79.03;102158.72;6014982;23;45400;-91
2022/11/11 11:58:25;;;;;;;;;13.50;13.50;;;;;12.68;78.72;102216.91;5994101;23;45399;-93
2022/11/11 12:01:44;;;;;;;;;14.50;13.50;;;;;13.07;78.73;102230.94;5965244;23;45636;-93
2022/11/11 12:08:21;;;;;;;;;12.50;11.75;;;;;13.72;76.61;102204.06;6014960;23;45194;-91
2022/11/11 12:21:15;;;;;;;;;12.75;12.00;;;;;16.86;71.23;102188.19;5986269;23;45196;-90
2022/11/11 12:23:57;;;;;;;;;10.25;10.25;;;;;16.24;70.21;101981.31;5980179;23;45552;-90
2022/11/11 12:27:13;;;;;;;;;11.75;11.00;;;;;17.12;70.00;102014.03;5989009;23;45362;-92
2022/11/11 12:30:03;;;;;;;;;12.00;12.00;;;;;18.83;70.04;102147.63;5987587;23;45930;-90
2022/11/11 12:33:08;;;;;;;;;9.00;9.00;;;;;19.75;68.50;102165.31;5987815;23;45339;-93
2022/11/11 12:36:06;;;;;;;;;9.50;8.50;;;;;19.41;69.31;102020.78;6069744;23;45209;-92
2022/11/11 12:38:50;;;;;;;;;7.00;7.00;;;;;19.44;68.77;101975.13;6042952;23;46569;-93
2022/11/11 12:41:43;;;;;;;;;9.00;8.25;;;;;20.12;68.16;102045.09;6039725;23;45337;-94
2022/11/11 12:44:11;;;;;;;;;9.50;9.25;;;;;20.14;67.66;102100.50;6037768;23;45326;-92
2022/11/11 12:47:11;;;;;;;;;9.00;9.00;;;;;20.09;69.32;102156.16;6036173;23;45366;-92
2022/11/11 12:49:55;;;;;;;;;10.25;9.50;;;;;19.54;68.00;102158.88;5983054;23;46337;-90
2022/11/11 12:52:33;;;;;;;;;11.00;11.00;;;;;18.58;68.79;102094.78;6036408;23;45348;-90
2022/11/11 12:55:22;;;;;;;;;9.00;9.00;;;;;18.28;70.96;102142.06;6037151;23;45485;-89
2022/11/11 12:58:05;;;;;;;;;10.00;9.00;;;;;17.81;71.87;102141.50;6039250;23;45298;-90
2022/11/11 13:00:36;;;;;;;;;12.75;8.00;;;;;16.27;72.28;101951.91;6040028;23;47317;-90
2022/11/11 13:03:12;;;;;;;;;10.25;10.25;;;;;16.21;72.43;102001.84;6034578;23;45372;-89
2022/11/11 13:05:55;;;;;;;;;8.00;8.00;;;;;15.91;73.26;102022.88;6063565;23;45557;-91
2022/11/11 13:08:41;;;;;;;;;12.00;10.25;;;;;16.33;73.46;102141.19;6093154;23;45517;-92
2022/11/11 13:11:26;;;;;;;;;8.50;7.50;;;;;16.02;73.97;102140.00;6095936;23;46386;-91
2022/11/11 13:14:28;;;;;;;;;14.50;11.25;;;;;14.64;74.12;101966.41;6097628;23;45338;-92
2022/11/11 13:16:58;;;;;;;;;10.50;10.25;;;;;15.45;72.87;102141.81;6249380;22;45341;-90
2022/11/11 13:19:40;;;;;;;;;11.00;10.00;;;;;15.15;72.60;102156.44;6286719;22;45116;-91
2022/11/11 13:22:30;;;;;;;;;4.50;4.50;;;;;14.50;73.72;102080.06;6285531;22;48006;-94
2022/11/11 13:25:01;;;;;;;;;12.00;11.25;;;;;13.85;73.12;102011.72;6291519;22;45150;-93
2022/11/11 13:27:42;;;;;;;;;10.00;9.50;;;;;14.02;74.27;102078.84;6262694;22;45225;-92
2022/11/11 13:30:55;;;;;;;;;6.25;6.25;;;;;14.24;74.75;102129.13;6293697;22;44902;-92
2022/11/11 13:33:25;;;;;;;;;8.75;7.00;;;;;13.12;74.90;101980.50;6265723;22;47028;-90
2022/11/11 13:35:59;;;;;;;;;10.50;10.50;;;;;13.43;75.10;102036.03;6258017;22;45384;-94
2022/11/11 13:38:35;;;;;;;;;11.00;10.00;;;;;13.85;75.02;102124.22;6256938;22;45477;-93
2022/11/11 13:41:04;;;;;;;;;10.00;8.50;;;;;13.77;74.86;102125.16;6253118;22;45324;-93
2022/11/11 13:43:35;;;;;;;;;13.00;11.25;;;;;12.36;74.61;101903.25;6256217;22;46857;-93
2022/11/11 13:46:03;;;;;;;;;13.75;11.00;;;;;11.85;74.90;101836.38;6267250;22;45222;-93
2022/11/11 13:48:35;;;;;;;;;11.25;11.00;;;;;13.56;75.44;102120.91;6288290;22;44710;-91
2022/11/11 13:51:33;;;;;;;;;13.75;12.00;;;;;12.06;74.11;101885.75;6256752;22;45363;-92
2022/11/11 13:54:01;;;;;;;;;8.75;8.75;;;;;12.97;74.87;102054.94;6165824;23;47371;-92
2022/11/11 13:56:44;;;;;;;;;11.75;9.00;;;;;12.74;75.46;102026.78;6190202;23;45191;-92
2022/11/11 13:59:27;;;;;;;;;9.25;9.25;;;;;13.24;75.36;102101.66;6167393;23;45323;-93
2022/11/11 14:02:17;;;;;;;;;11.50;8.25;;;;;13.18;75.00;102104.34;6173618;23;44933;-91
2022/11/11 14:05:01;;;;;;;;;13.75;12.00;;;;;13.12;74.77;102101.75;6195552;23;47269;-93
2022/11/11 14:07:47;;;;;;;;;8.75;8.75;;;;;12.65;75.05;102031.25;6197998;23;45221;-93
2022/11/11 14:10:15;;;;;;;;;11.25;10.75;;;;;12.25;75.59;101947.50;6203783;23;45143;-93
2022/11/11 14:12:45;;;;;;;;;9.25;8.00;;;;;13.01;75.36;102083.22;6203684;23;44849;-93
2022/11/11 14:15:43;;;;;;;;;10.00;10.00;;;;;12.97;76.09;102082.34;6175435;23;45752;-95
2022/11/11 14:18:17;;;;;;;;;9.50;7.75;;;;;12.54;75.53;102018.94;6175366;23;45350;-93
2022/11/11 14:20:48;;;;;;;;;7.00;7.00;;;;;11.42;75.50;101823.31;6204498;23;45223;-94
2022/11/11 14:23:19;;;;;;;;;9.25;8.50;;;;;12.94;75.66;102085.03;6204464;23;45215;-92
2022/11/11 14:26:04;;;;;;;;;8.75;8.75;;;;;12.51;75.61;102005.69;6200833;23;46001;-93
2022/11/11 14:28:32;;;;;;;;;8.75;7.75;;;;;12.52;75.70;102019.84;6203284;23;44817;-92
2022/11/11 14:31:16;;;;;;;;;8.75;8.75;;;;;11.73;75.38;101883.22;6234483;22;45269;-93
2022/11/11 14:34:06;;;;;;;;;5.50;5.50;;;;;11.35;75.44;101835.69;6268356;22;45335;-92
2022/11/11 14:36:38;;;;;;;;;8.00;8.00;;;;;12.88;75.19;102087.72;6285730;22;45509;-94
2022/11/11 14:39:18;;;;;;;;;11.00;10.00;;;;;12.86;75.49;102093.91;6258794;22;45524;-93
2022/11/11 14:41:52;;;;;;;;;6.50;6.50;;;;;11.71;76.15;101889.41;6260821;22;44746;-94
2022/11/11 14:44:33;;;;;;;;;6.50;5.75;;;;;12.51;76.11;102045.47;6260526;22;45289;-92
2022/11/11 14:47:01;;;;;;;;;8.25;8.00;;;;;12.42;76.11;102014.56;6264273;22;45450;-93
2022/11/11 14:49:54;;;;;;;;;8.50;8.00;;;;;12.84;76.14;102074.47;6266006;22;45226;-91
2022/11/11 14:52:50;;;;;;;;;11.25;9.75;;;;;12.84;76.35;102085.09;6263108;22;44665;-92
2022/11/11 14:55:32;;;;;;;;;6.50;5.50;;;;;12.69;76.51;102075.44;6261044;22;45494;-92
2022/11/11 14:58:06;;;;;;;;;9.50;9.50;;;;;12.79;76.09;102078.03;6270962;22;47182;-92
2022/11/11 15:00:44;;;;;;;;;7.00;7.00;;;;;12.62;76.27;102054.25;6288795;22;45427;-92
2022/11/11 15:03:30;;;;;;;;;12.25;11.00;;;;;10.80;76.77;101742.38;6256463;22;44778;-91
2022/11/11 15:06:13;;;;;;;;;13.50;11.75;;;;;12.03;76.91;101946.72;6228419;22;45218;-93
2022/11/11 15:08:57;;;;;;;;;10.25;9.50;;;;;12.31;77.13;101996.94;6229521;22;48174;-91
2022/11/11 15:11:37;;;;;;;;;11.00;9.25;;;;;12.31;77.00;101999.59;6225932;22;45241;-91
2022/11/11 15:14:17;;;;;;;;;10.50;10.50;;;;;12.00;77.35;101946.75;6233819;22;45227;-92
2022/11/11 15:16:43;;;;;;;;;10.00;10.00;;;;;11.81;76.30;101917.66;6232693;22;45278;-92
2022/11/11 15:19:32;;;;;;;;;8.00;8.00;;;;;10.82;76.77;101739.72;6229523;22;45462;-91
2022/11/11 15:22:25;;;;;;;;;10.50;10.00;;;;;12.67;77.08;102071.91;6236179;22;45265;-92
2022/11/11 15:25:31;;;;;;;;;10.00;9.00;;;;;11.83;76.20;101929.09;6227572;22;45180;-92
2022/11/11 15:28:13;;;;;;;;;8.00;8.00;;;;;12.62;77.00;102070.16;6217196;22;45518;-92
2022/11/11 15:31:15;;;;;;;;;8.50;8.50;;;;;12.60;77.52;102065.75;6231060;22;47016;-92
2022/11/11 15:33:56;;;;;;;;;10.75;9.00;;;;;12.24;77.03;102010.25;6229242;22;45345;-91
2022/11/11 15:36:53;;;;;;;;;9.50;9.25;;;;;12.56;76.97;102072.84;6229021;22;45261;-92
2022/11/11 15:39:24;;;;;;;;;10.50;10.50;;;;;12.54;77.21;102085.25;6227921;22;45224;-92
2022/11/11 15:41:52;;;;;;;;;12.25;8.50;;;;;11.50;77.17;101908.91;6225295;22;47029;-93
2022/11/11 15:44:21;;;;;;;;;12.75;10.00;;;;;10.74;77.33;101779.41;6226278;22;45239;-92
2022/11/11 15:46:48;;;;;;;;;10.75;8.00;;;;;11.31;77.16;101865.69;6226632;22;45245;-93
2022/11/11 15:49:34;;;;;;;;;11.00;10.75;;;;;12.48;77.48;102065.81;6229808;22;45421;-91
2022/11/11 15:59:36;;;;;;;;;9.00;9.00;;;;;12.36;77.50;102074.69;6249401;22;45151;-93
2022/11/11 16:02:22;;;;;;;;;14.50;12.50;;;;;11.95;77.91;102007.69;6254545;22;45518;-92
2022/11/11 16:04:55;;;;;;;;;9.00;9.00;;;;;11.04;77.42;101851.66;6242837;22;46783;-92
2022/11/11 16:07:29;;;;;;;;;8.25;7.25;;;;;11.28;77.81;101923.94;6255524;22;45459;-91
2022/11/11 16:09:59;;;;;;;;;12.00;11.50;;;;;10.66;77.52;101818.22;6285954;22;45400;-92
2022/11/11 16:12:31;;;;;;;;;11.75;11.50;;;;;12.20;77.50;102088.00;6283724;22;45442;-91
2022/11/11 16:14:59;;;;;;;;;9.75;8.25;;;;;11.16;77.94;101898.41;6284788;22;45539;-91
2022/11/11 16:17:39;;;;;;;;;9.00;9.00;;;;;11.80;78.04;102013.88;6285736;22;44558;-92